Time;durP1;ratioP1;P1;durP2;ratioP2;P2;SDS_P1;SDS_P2;PMS_P1;PMS_P2;Temp;Humidity;BMP_temperature;BMP_pressure;BME280_temperature;BME280_humidity;BME280_pressure;Samples;Min_cycle;Max_cycle;Signal;HPM_P1;HPM_P2
2021/05/17 00:00:09;;;;;;;12.50;7.50;;;10.20;99.90;;;;;;6091245;23;20891;-85
2021/05/17 00:02:36;;;;;;;12.88;7.60;;;10.20;99.90;;;;;;6059434;23;20073;-84
2021/05/17 00:05:05;;;;;;;15.95;7.75;;;10.30;99.90;;;;;;6083166;23;20022;-84
2021/05/17 00:07:32;;;;;;;15.05;7.75;;;10.30;99.90;;;;;;6091952;23;20363;-85
2021/05/17 00:09:59;;;;;;;14.75;7.47;;;10.30;99.90;;;;;;6090648;23;20346;-85
2021/05/17 00:12:26;;;;;;;17.63;8.30;;;10.30;99.90;;;;;;6090311;23;24933;-84
2021/05/17 00:14:53;;;;;;;12.80;7.15;;;10.40;99.90;;;;;;6089745;23;20029;-84
2021/05/17 00:17:21;;;;;;;14.25;7.57;;;10.40;99.90;;;;;;6091624;23;20006;-84
2021/05/17 00:19:48;;;;;;;14.43;7.88;;;10.40;99.90;;;;;;6090328;23;20014;-84
2021/05/17 00:22:15;;;;;;;12.20;7.28;;;10.30;99.90;;;;;;6093032;23;20027;-84
2021/05/17 00:24:42;;;;;;;14.25;7.75;;;10.40;99.90;;;;;;6080825;23;20057;-84
2021/05/17 00:27:09;;;;;;;11.07;7.05;;;10.40;99.90;;;;;;6092778;23;20133;-84
2021/05/17 00:29:36;;;;;;;10.80;6.60;;;10.40;99.90;;;;;;6092466;23;20022;-85
2021/05/17 00:32:03;;;;;;;12.43;8.07;;;10.40;99.90;;;;;;6094849;23;20036;-86
2021/05/17 00:34:31;;;;;;;11.63;7.22;;;10.40;99.90;;;;;;6090887;23;20443;-86
2021/05/17 00:36:58;;;;;;;12.85;7.60;;;10.50;99.90;;;;;;6094456;23;20504;-85
2021/05/17 00:39:26;;;;;;;14.20;8.45;;;10.40;99.90;;;;;;6106092;23;20021;-86
2021/05/17 00:41:53;;;;;;;16.45;9.00;;;10.50;99.90;;;;;;6098773;23;20399;-86
2021/05/17 00:44:20;;;;;;;16.55;8.35;;;10.50;99.90;;;;;;6107653;23;20030;-86
2021/05/17 00:46:47;;;;;;;16.50;8.50;;;10.50;99.90;;;;;;6079788;23;20129;-85
2021/05/17 00:49:14;;;;;;;14.43;8.32;;;10.40;99.90;;;;;;6092711;23;20161;-85
2021/05/17 00:51:41;;;;;;;11.95;7.75;;;10.40;99.90;;;;;;6042278;23;20022;-85
2021/05/17 00:54:08;;;;;;;14.95;8.32;;;10.50;99.90;;;;;;6090553;23;20021;-85
2021/05/17 00:56:36;;;;;;;17.33;9.57;;;10.40;99.90;;;;;;6094375;23;20105;-85
2021/05/17 00:59:03;;;;;;;14.63;9.18;;;10.40;99.90;;;;;;6093082;23;20026;-85
2021/05/17 01:01:30;;;;;;;19.60;9.48;;;10.50;99.90;;;;;;6084534;23;20073;-85
2021/05/17 01:03:57;;;;;;;18.40;8.82;;;10.40;99.90;;;;;;6119309;23;20168;-85
2021/05/17 01:06:27;;;;;;;15.65;8.98;;;10.40;99.90;;;;;;6092635;23;20402;-85
2021/05/17 01:09:08;;;;;;;15.63;9.00;;;10.40;99.90;;;;;;6091960;23;20029;-86
2021/05/17 01:11:35;;;;;;;17.33;8.57;;;10.40;99.90;;;;;;6091640;23;20049;-85
2021/05/17 01:14:06;;;;;;;15.05;8.02;;;10.40;99.90;;;;;;6089713;23;20036;-85
2021/05/17 01:16:33;;;;;;;14.95;8.25;;;10.40;99.90;;;;;;6071962;23;20045;-85
2021/05/17 01:19:00;;;;;;;13.38;7.85;;;10.40;99.90;;;;;;6076514;23;20474;-86
2021/05/17 01:21:34;;;;;;;15.10;8.45;;;10.40;99.90;;;;;;6078583;23;20007;-85
2021/05/17 01:24:01;;;;;;;14.15;8.70;;;10.40;99.90;;;;;;6093297;23;20074;-85
2021/05/17 01:26:34;;;;;;;14.68;8.43;;;10.30;99.90;;;;;;6093428;23;20026;-85
2021/05/17 01:29:08;;;;;;;13.68;8.23;;;10.30;99.90;;;;;;6083438;23;20532;-84
2021/05/17 01:31:36;;;;;;;12.70;8.32;;;10.30;99.90;;;;;;6093590;23;20105;-84
2021/05/17 01:34:03;;;;;;;15.38;8.85;;;10.30;99.90;;;;;;6095115;23;20097;-84
2021/05/17 01:36:34;;;;;;;15.05;8.63;;;10.30;99.90;;;;;;6094157;23;20096;-84
2021/05/17 01:39:01;;;;;;;13.98;8.77;;;10.30;99.90;;;;;;6093660;23;20022;-85
2021/05/17 01:41:28;;;;;;;14.48;9.90;;;10.30;99.90;;;;;;6094277;23;20308;-84
2021/05/17 01:43:57;;;;;;;14.40;8.82;;;10.30;99.90;;;;;;6093494;23;20018;-85
2021/05/17 01:46:32;;;;;;;17.45;10.10;;;10.30;99.90;;;;;;6091866;23;20026;-85
2021/05/17 01:48:59;;;;;;;14.80;9.05;;;10.30;99.90;;;;;;6091310;23;20395;-85
2021/05/17 01:51:26;;;;;;;13.93;9.20;;;10.30;99.90;;;;;;6094060;23;20042;-85
2021/05/17 01:53:54;;;;;;;16.92;10.00;;;10.30;99.90;;;;;;6094875;23;20046;-85
2021/05/17 01:56:21;;;;;;;14.80;8.55;;;10.30;99.90;;;;;;6092687;23;20097;-85
2021/05/17 01:58:48;;;;;;;17.75;10.02;;;10.30;99.90;;;;;;6081123;23;20021;-85
2021/05/17 02:01:18;;;;;;;14.40;9.45;;;10.30;99.90;;;;;;6096226;23;20108;-85
2021/05/17 02:03:48;;;;;;;16.80;9.65;;;10.30;99.90;;;;;;6092399;23;20101;-84
2021/05/17 02:06:17;;;;;;;15.18;9.95;;;10.30;99.90;;;;;;6095028;23;20096;-85
2021/05/17 02:08:47;;;;;;;18.27;10.38;;;10.30;99.90;;;;;;6093955;23;20029;-85
2021/05/17 02:11:16;;;;;;;14.60;9.27;;;10.30;99.90;;;;;;6111912;23;20030;-85
2021/05/17 02:13:43;;;;;;;22.05;10.98;;;10.30;99.90;;;;;;6078807;23;20022;-85
2021/05/17 02:16:41;;;;;;;19.70;10.52;;;10.30;99.90;;;;;;6106185;23;20053;-86
2021/05/17 02:19:22;;;;;;;15.45;9.60;;;10.30;99.90;;;;;;6115483;23;20158;-83
2021/05/17 02:21:49;;;;;;;16.67;9.45;;;10.20;99.90;;;;;;6092423;23;20151;-84
2021/05/17 02:24:16;;;;;;;16.23;10.48;;;10.30;99.90;;;;;;6094200;23;20041;-85
2021/05/17 02:26:43;;;;;;;18.92;10.23;;;10.30;99.90;;;;;;6088711;23;20049;-84
2021/05/17 02:29:11;;;;;;;18.40;10.10;;;10.20;99.90;;;;;;6095265;23;20506;-84
2021/05/17 02:31:38;;;;;;;16.60;9.95;;;10.20;99.90;;;;;;6094969;23;20025;-84
2021/05/17 02:34:05;;;;;;;17.85;11.02;;;10.20;99.90;;;;;;6094928;23;20100;-84
2021/05/17 02:36:32;;;;;;;21.15;12.27;;;10.20;99.90;;;;;;6096922;23;20056;-84
2021/05/17 02:39:00;;;;;;;22.70;11.82;;;10.20;99.90;;;;;;6119694;23;20028;-84
2021/05/17 02:41:28;;;;;;;19.45;11.30;;;10.20;99.90;;;;;;6122350;23;20034;-84
2021/05/17 02:43:56;;;;;;;21.40;11.13;;;10.20;99.90;;;;;;6095848;23;20413;-85
2021/05/17 02:46:23;;;;;;;19.90;10.25;;;10.20;99.90;;;;;;6095090;23;20053;-85
2021/05/17 02:48:50;;;;;;;18.90;10.77;;;10.20;99.90;;;;;;6095218;23;20054;-85
2021/05/17 02:51:17;;;;;;;17.00;9.88;;;10.20;99.90;;;;;;6097255;23;20018;-85
2021/05/17 02:53:50;;;;;;;18.83;9.70;;;10.20;99.90;;;;;;6121092;23;20033;-85
2021/05/17 02:56:23;;;;;;;22.40;9.93;;;10.10;99.90;;;;;;6094538;23;20530;-85
2021/05/17 02:58:51;;;;;;;15.50;9.23;;;10.10;99.90;;;;;;6094290;23;20068;-86
2021/05/17 03:01:48;;;;;;;17.10;8.70;;;10.10;99.90;;;;;;6094195;23;20354;-85
2021/05/17 03:04:20;;;;;;;17.92;9.57;;;10.10;99.90;;;;;;6089141;23;20025;-86
2021/05/17 03:07:09;;;;;;;16.13;9.40;;;10.00;99.90;;;;;;6091280;23;20049;-86
2021/05/17 03:09:37;;;;;;;15.10;9.10;;;10.00;99.90;;;;;;6093706;23;20022;-84
2021/05/17 03:12:06;;;;;;;20.65;9.48;;;10.00;99.90;;;;;;6095129;23;20085;-85
2021/05/17 03:14:35;;;;;;;13.98;8.70;;;10.00;99.90;;;;;;6118985;23;20041;-85
2021/05/17 03:17:02;;;;;;;17.98;9.23;;;10.00;99.90;;;;;;6093266;23;20022;-85
2021/05/17 03:19:32;;;;;;;18.00;9.93;;;9.90;99.90;;;;;;6093791;23;20026;-85
2021/05/17 03:22:01;;;;;;;14.20;8.70;;;9.90;99.90;;;;;;6094376;23;20542;-85
2021/05/17 03:24:33;;;;;;;16.17;8.95;;;9.90;99.90;;;;;;6085576;23;20030;-85
2021/05/17 03:27:20;;;;;;;16.35;8.48;;;9.90;99.90;;;;;;6094572;23;20044;-85
2021/05/17 03:29:48;;;;;;;19.48;8.88;;;9.90;99.90;;;;;;6094165;23;20048;-85
2021/05/17 03:32:16;;;;;;;14.65;8.43;;;9.90;99.90;;;;;;6094100;23;20026;-85
2021/05/17 03:34:43;;;;;;;15.50;8.75;;;10.00;99.90;;;;;;6095021;23;20025;-85
2021/05/17 03:37:09;;;;;;;14.38;8.75;;;9.90;99.90;;;;;;6095250;23;20049;-86
2021/05/17 03:39:37;;;;;;;14.13;8.10;;;9.90;99.90;;;;;;6096580;23;20514;-86
2021/05/17 03:42:04;;;;;;;17.35;8.70;;;9.90;99.90;;;;;;6097133;23;20025;-86
2021/05/17 03:44:31;;;;;;;13.20;8.52;;;9.90;99.90;;;;;;6097859;23;20056;-86
2021/05/17 03:46:57;;;;;;;13.95;8.25;;;9.90;99.90;;;;;;6099038;23;20022;-85
2021/05/17 03:49:25;;;;;;;15.07;9.23;;;9.90;99.90;;;;;;6095900;23;20450;-86
2021/05/17 03:51:59;;;;;;;17.40;9.23;;;9.80;99.90;;;;;;6082792;23;20022;-85
2021/05/17 03:54:26;;;;;;;16.60;8.98;;;9.90;99.90;;;;;;6092254;23;20022;-85
2021/05/17 03:56:53;;;;;;;13.25;8.32;;;9.80;99.90;;;;;;6097769;23;20025;-84
2021/05/17 03:59:20;;;;;;;15.40;8.45;;;9.80;99.90;;;;;;6095193;23;20046;-84
2021/05/17 04:01:47;;;;;;;18.27;8.93;;;9.80;99.90;;;;;;6083416;23;20018;-85
2021/05/17 04:04:15;;;;;;;17.65;8.93;;;9.80;99.90;;;;;;6095603;23;20026;-84
2021/05/17 04:07:12;;;;;;;20.30;9.40;;;9.80;99.90;;;;;;6096129;23;20372;-85
2021/05/17 04:13:15;;;;;;;16.38;8.80;;;9.90;99.90;;;;;;6123309;23;20104;-85
2021/05/17 04:15:14;;;;;;;18.25;9.10;;;9.90;99.90;;;;;;6122679;23;20052;-85
2021/05/17 04:17:41;;;;;;;22.58;9.82;;;9.90;99.90;;;;;;6097221;23;20026;-85
2021/05/17 04:20:08;;;;;;;15.25;8.95;;;10.00;99.90;;;;;;6121700;23;20327;-86
2021/05/17 04:22:39;;;;;;;16.38;9.10;;;9.90;99.90;;;;;;6097686;23;20050;-84
2021/05/17 04:25:06;;;;;;;15.10;8.63;;;10.00;99.90;;;;;;6097245;23;20522;-85
2021/05/17 04:27:33;;;;;;;15.15;7.70;;;10.00;99.90;;;;;;6093266;23;20093;-85
2021/05/17 04:30:00;;;;;;;18.48;8.45;;;10.00;99.90;;;;;;6097490;23;20045;-86
2021/05/17 04:32:29;;;;;;;16.98;9.00;;;10.00;99.90;;;;;;6121948;23;20026;-84
2021/05/17 04:34:56;;;;;;;17.42;8.90;;;10.00;99.90;;;;;;6095446;23;20026;-85
2021/05/17 04:37:23;;;;;;;18.73;8.60;;;10.00;99.90;;;;;;6092804;23;20026;-85
2021/05/17 04:39:50;;;;;;;15.00;9.25;;;9.90;99.90;;;;;;6099103;23;20025;-85
2021/05/17 04:42:16;;;;;;;15.02;8.90;;;9.90;99.90;;;;;;6099294;23;20066;-85
2021/05/17 04:44:43;;;;;;;16.63;9.07;;;9.90;99.90;;;;;;6098312;23;20034;-85
2021/05/17 04:47:10;;;;;;;14.85;9.02;;;10.00;99.90;;;;;;6086029;23;20649;-85
2021/05/17 04:49:37;;;;;;;18.17;10.30;;;10.00;99.90;;;;;;6100798;23;20026;-84
2021/05/17 04:52:04;;;;;;;16.83;10.63;;;10.00;99.90;;;;;;6109835;23;20025;-85
2021/05/17 04:54:31;;;;;;;18.80;9.70;;;10.00;99.90;;;;;;6099785;23;20014;-84
2021/05/17 04:56:58;;;;;;;15.18;9.30;;;10.00;99.90;;;;;;6138412;23;20026;-84
2021/05/17 04:59:25;;;;;;;19.73;10.13;;;10.00;99.90;;;;;;6114026;23;20009;-84
2021/05/17 05:01:52;;;;;;;16.42;9.52;;;10.00;99.90;;;;;;6100116;23;20538;-85
2021/05/17 05:04:19;;;;;;;15.90;9.68;;;10.00;99.90;;;;;;6112927;23;20025;-85
2021/05/17 05:06:47;;;;;;;17.63;9.50;;;10.10;99.90;;;;;;6111589;23;20026;-85
2021/05/17 05:09:14;;;;;;;18.98;9.45;;;10.20;99.90;;;;;;6110643;23;20026;-85
2021/05/17 05:11:41;;;;;;;15.10;8.77;;;10.30;99.90;;;;;;6106263;23;20026;-84
2021/05/17 05:14:08;;;;;;;16.35;10.02;;;10.50;99.90;;;;;;6122317;23;20402;-86
2021/05/17 05:16:35;;;;;;;13.77;8.68;;;10.70;99.90;;;;;;6096307;23;20049;-85
2021/05/17 05:19:01;;;;;;;13.80;8.95;;;10.80;99.90;;;;;;6095605;23;20029;-85
2021/05/17 05:21:28;;;;;;;16.25;8.63;;;11.00;99.90;;;;;;6093081;23;20534;-85
2021/05/17 05:23:55;;;;;;;16.73;8.77;;;11.10;99.90;;;;;;6095378;23;20161;-85
2021/05/17 05:31:59;;;;;;;11.93;7.35;;;11.30;99.90;;;;;;6120322;23;20014;-85
2021/05/17 05:34:29;;;;;;;15.85;8.30;;;11.40;99.90;;;;;;6094787;23;20458;-85
2021/05/17 05:36:59;;;;;;;11.48;7.32;;;11.40;99.90;;;;;;6096775;23;20025;-85
2021/05/17 05:39:27;;;;;;;11.75;7.90;;;11.40;99.90;;;;;;6094848;23;20022;-85
2021/05/17 05:41:54;;;;;;;9.43;7.47;;;11.40;99.90;;;;;;6096130;23;20343;-85
2021/05/17 05:44:21;;;;;;;10.35;7.57;;;11.40;99.90;;;;;;6094879;23;20069;-85
2021/05/17 05:46:47;;;;;;;12.45;8.00;;;11.40;99.90;;;;;;6094590;23;20057;-85
2021/05/17 05:49:14;;;;;;;10.77;7.28;;;11.50;99.90;;;;;;6096651;23;20060;-85
2021/05/17 05:51:41;;;;;;;12.93;8.10;;;11.50;99.90;;;;;;6094943;23;20041;-85
2021/05/17 05:54:09;;;;;;;14.75;7.50;;;11.50;99.90;;;;;;6094996;23;20443;-85
2021/05/17 05:56:36;;;;;;;11.45;6.53;;;11.60;99.90;;;;;;6094708;23;20144;-86
2021/05/17 05:59:03;;;;;;;11.02;8.18;;;11.60;99.90;;;;;;6093889;23;20032;-85
2021/05/17 06:01:29;;;;;;;11.57;7.55;;;11.60;99.90;;;;;;6095045;23;20097;-86
2021/05/17 06:03:56;;;;;;;14.32;7.50;;;11.70;99.90;;;;;;6091187;23;20123;-86
2021/05/17 06:06:23;;;;;;;11.15;7.13;;;11.70;99.90;;;;;;6094172;23;20022;-86
2021/05/17 06:08:50;;;;;;;17.77;8.05;;;11.70;99.90;;;;;;6093918;23;20070;-86
2021/05/17 06:11:17;;;;;;;16.05;8.15;;;11.80;99.90;;;;;;6092111;23;20128;-85
2021/05/17 06:13:46;;;;;;;10.90;7.47;;;11.80;99.90;;;;;;6090818;23;20026;-86
2021/05/17 06:16:13;;;;;;;16.05;7.65;;;12.00;99.90;;;;;;6091687;23;20507;-85
2021/05/17 06:18:40;;;;;;;11.23;6.63;;;12.10;99.90;;;;;;6091535;23;20038;-85
2021/05/17 06:21:07;;;;;;;12.98;6.32;;;12.10;99.90;;;;;;6066131;23;20021;-86
2021/05/17 06:23:35;;;;;;;9.77;6.25;;;12.10;99.90;;;;;;6076874;23;20375;-86
2021/05/17 06:26:02;;;;;;;11.40;6.25;;;12.10;99.90;;;;;;6076479;23;20072;-86
2021/05/17 06:28:29;;;;;;;8.32;5.55;;;12.10;99.90;;;;;;6086916;23;20022;-86
2021/05/17 06:31:00;;;;;;;13.55;6.88;;;12.10;99.90;;;;;;6090186;23;20026;-85
2021/05/17 06:33:28;;;;;;;10.05;6.55;;;12.00;99.90;;;;;;6074663;23;22001;-87
2021/05/17 06:35:59;;;;;;;16.42;6.00;;;12.10;99.90;;;;;;6058491;23;20128;-86
2021/05/17 06:38:31;;;;;;;12.40;6.25;;;12.10;99.90;;;;;;6044553;23;20034;-86
2021/05/17 06:40:58;;;;;;;10.38;6.70;;;12.20;99.90;;;;;;6088083;23;20022;-86
2021/05/17 06:43:27;;;;;;;11.73;6.22;;;12.20;99.90;;;;;;6087519;23;20342;-86
2021/05/17 06:45:54;;;;;;;11.68;6.15;;;12.20;99.90;;;;;;6110224;23;20022;-86
2021/05/17 06:48:23;;;;;;;10.27;6.60;;;12.20;99.90;;;;;;6089322;23;20044;-87
2021/05/17 06:50:50;;;;;;;10.27;5.68;;;12.20;99.90;;;;;;6063354;23;20009;-87
2021/05/17 06:53:17;;;;;;;11.48;6.28;;;12.20;99.90;;;;;;6089680;23;20524;-87
2021/05/17 06:56:00;;;;;;;9.90;6.55;;;12.30;99.90;;;;;;6089626;23;20026;-87
2021/05/17 06:58:34;;;;;;;11.40;5.60;;;12.50;99.90;;;;;;6090798;23;20085;-87
2021/05/17 07:01:01;;;;;;;8.85;5.43;;;12.60;99.90;;;;;;6089723;23;20026;-87
2021/05/17 07:03:29;;;;;;;11.73;6.20;;;12.70;99.90;;;;;;6090738;23;20342;-87
2021/05/17 07:06:09;;;;;;;8.95;5.40;;;12.80;99.90;;;;;;6033367;23;20026;-87
2021/05/17 07:11:36;;;;;;;11.20;5.53;;;12.90;99.90;;;;;;6084372;23;20024;-87
2021/05/17 07:14:03;;;;;;;8.90;4.93;;;12.90;99.90;;;;;;6086742;23;20342;-86
2021/05/17 07:16:30;;;;;;;8.85;4.80;;;13.00;99.90;;;;;;6073936;23;20533;-86
2021/05/17 07:18:57;;;;;;;7.50;4.72;;;13.20;99.90;;;;;;6091996;23;20018;-86
2021/05/17 07:24:10;;;;;;;8.35;4.60;;;13.40;99.90;;;;;;6114975;23;20026;-86
2021/05/17 07:26:37;;;;;;;8.80;5.28;;;13.50;99.90;;;;;;6089143;23;20077;-86
2021/05/17 07:29:08;;;;;;;8.75;5.53;;;13.50;99.90;;;;;;6089447;23;20029;-87
2021/05/17 07:31:35;;;;;;;8.18;5.40;;;13.60;99.90;;;;;;6090122;23;20046;-86
2021/05/17 07:34:02;;;;;;;9.95;5.07;;;13.60;99.90;;;;;;6083567;23;20522;-86
2021/05/17 07:36:29;;;;;;;7.20;4.85;;;13.60;99.90;;;;;;6085184;23;20046;-85
2021/05/17 07:38:56;;;;;;;7.70;4.35;;;13.70;99.90;;;;;;6084458;23;20426;-86
2021/05/17 07:41:23;;;;;;;7.53;4.65;;;13.80;99.90;;;;;;6087028;23;20026;-87
2021/05/17 07:43:50;;;;;;;10.45;4.80;;;13.80;99.90;;;;;;6088847;23;20015;-87
2021/05/17 07:46:18;;;;;;;10.45;5.07;;;13.80;99.90;;;;;;6084549;23;20010;-87
2021/05/17 07:51:31;;;;;;;5.68;4.35;;;13.90;99.90;;;;;;6088071;23;20027;-87
2021/05/17 07:53:58;;;;;;;8.15;4.60;;;14.00;99.90;;;;;;6088986;23;20073;-87
2021/05/17 07:56:24;;;;;;;7.40;5.10;;;14.00;99.90;;;;;;6087459;23;20448;-88
2021/05/17 07:58:51;;;;;;;8.38;5.03;;;14.00;99.90;;;;;;6087480;23;20048;-87
2021/05/17 08:01:21;;;;;;;7.25;4.53;;;14.10;99.90;;;;;;6086173;23;20474;-87
2021/05/17 08:03:50;;;;;;;13.38;5.30;;;14.10;99.90;;;;;;6086815;23;20383;-87
2021/05/17 08:06:17;;;;;;;8.77;5.65;;;14.10;99.90;;;;;;6085552;23;20023;-88
2021/05/17 08:08:47;;;;;;;7.35;4.88;;;14.40;99.90;;;;;;6086274;23;20447;-87
2021/05/17 08:11:14;;;;;;;8.48;4.55;;;14.50;99.90;;;;;;6062043;23;20029;-87
2021/05/17 08:13:42;;;;;;;7.65;4.82;;;14.60;99.90;;;;;;6085403;23;20026;-87
2021/05/17 08:16:19;;;;;;;9.98;4.45;;;14.60;99.90;;;;;;6074116;23;20049;-87
2021/05/17 08:18:48;;;;;;;7.57;4.38;;;14.40;99.90;;;;;;6085781;23;20375;-87
2021/05/17 08:21:15;;;;;;;7.70;4.50;;;14.20;99.90;;;;;;6085005;23;20023;-87
2021/05/17 08:23:42;;;;;;;4.18;3.78;;;14.10;99.90;;;;;;6087365;23;20085;-86
2021/05/17 08:26:09;;;;;;;5.03;3.30;;;14.10;99.90;;;;;;6077370;23;20010;-86
2021/05/17 08:28:37;;;;;;;4.30;2.95;;;14.10;99.90;;;;;;6087073;23;20022;-87
2021/05/17 08:31:05;;;;;;;5.85;2.83;;;14.00;99.90;;;;;;6086414;23;20022;-87
2021/05/17 08:33:33;;;;;;;4.72;3.05;;;13.90;99.90;;;;;;6087584;23;20034;-86
2021/05/17 08:36:00;;;;;;;5.80;3.58;;;13.70;99.90;;;;;;6090293;23;20081;-87
2021/05/17 08:38:30;;;;;;;9.02;4.55;;;13.40;99.90;;;;;;6007818;23;20028;-87
2021/05/17 08:41:21;;;;;;;6.55;3.85;;;13.20;99.90;;;;;;5949543;23;20018;-86
2021/05/17 08:44:12;;;;;;;5.40;4.10;;;12.90;99.90;;;;;;5915135;23;20053;-87
2021/05/17 08:47:25;;;;;;;7.78;4.47;;;12.80;99.90;;;;;;5982919;23;20505;-86
2021/05/17 08:50:20;;;;;;;7.82;4.95;;;12.80;99.90;;;;;;5924207;23;20512;-86
2021/05/17 08:53:14;;;;;;;5.80;4.78;;;12.80;99.90;;;;;;5998189;23;20017;-86
2021/05/17 08:56:17;;;;;;;7.45;5.18;;;12.80;99.90;;;;;;6009705;23;20090;-86
2021/05/17 08:58:47;;;;;;;8.48;5.85;;;12.90;99.90;;;;;;5999747;23;20026;-86
2021/05/17 09:01:49;;;;;;;7.35;5.05;;;13.10;99.90;;;;;;6064440;23;20025;-86
2021/05/17 09:04:22;;;;;;;7.47;4.68;;;13.50;99.90;;;;;;5936516;23;20012;-86
2021/05/17 09:07:17;;;;;;;6.95;5.30;;;13.80;99.90;;;;;;5938125;23;20017;-87
2021/05/17 09:10:34;;;;;;;13.75;6.20;;;14.00;99.90;;;;;;5954593;23;20033;-86
2021/05/17 09:13:18;;;;;;;6.47;5.35;;;14.20;99.90;;;;;;6032629;23;20041;-86
2021/05/17 09:16:09;;;;;;;10.43;6.82;;;14.40;99.90;;;;;;6095815;23;20108;-86
2021/05/17 09:18:36;;;;;;;12.82;6.85;;;14.50;99.90;;;;;;6071299;23;20030;-86
2021/05/17 09:21:13;;;;;;;13.65;6.57;;;14.70;99.90;;;;;;6023851;23;20033;-87
2021/05/17 09:23:54;;;;;;;11.38;6.32;;;14.70;99.90;;;;;;6021268;23;20021;-87
2021/05/17 09:26:26;;;;;;;11.55;7.30;;;14.80;99.90;;;;;;6100878;23;20058;-87
2021/05/17 09:28:53;;;;;;;11.20;6.80;;;14.80;99.90;;;;;;6074485;23;20034;-87
2021/05/17 09:31:22;;;;;;;9.50;6.60;;;15.00;99.90;;;;;;6103669;23;20453;-88
2021/05/17 09:33:50;;;;;;;6.50;5.80;;;15.10;99.90;;;;;;6104110;23;20026;-86
2021/05/17 09:36:35;;;;;;;9.65;6.25;;;15.10;99.90;;;;;;6089872;23;20016;-87
2021/05/17 09:39:05;;;;;;;;;;;15.00;99.90;;;;;;6077554;23;20057;-86
2021/05/17 09:41:55;;;;;;;6.55;5.40;;;14.90;99.90;;;;;;6080999;23;19924;-87
2021/05/17 09:44:31;;;;;;;11.88;5.85;;;15.00;99.90;;;;;;6081447;23;20037;-87
2021/05/17 09:47:06;;;;;;;8.90;4.90;;;14.90;99.90;;;;;;6089599;23;20069;-87
2021/05/17 09:49:39;;;;;;;7.55;4.50;;;14.80;99.90;;;;;;6084746;23;20026;-86
2021/05/17 09:52:12;;;;;;;7.25;5.30;;;14.70;99.90;;;;;;6084757;23;20027;-86
2021/05/17 09:54:55;;;;;;;6.43;3.78;;;14.80;99.90;;;;;;6084051;23;20095;-86
2021/05/17 09:57:28;;;;;;;6.20;3.97;;;14.90;99.90;;;;;;6085833;23;20026;-86
2021/05/17 09:59:57;;;;;;;6.95;4.32;;;15.00;99.90;;;;;;6085344;23;20097;-86
2021/05/17 10:02:46;;;;;;;6.82;4.95;;;15.10;99.90;;;;;;6087960;23;20018;-86
2021/05/17 10:05:26;;;;;;;7.47;5.65;;;15.20;99.90;;;;;;6086767;23;20493;-86
2021/05/17 10:08:04;;;;;;;7.53;5.38;;;15.20;99.90;;;;;;6084968;23;20523;-86
2021/05/17 10:10:42;;;;;;;7.30;4.80;;;15.20;99.90;;;;;;6086311;23;20379;-87
2021/05/17 10:13:09;;;;;;;6.47;4.38;;;15.20;99.90;;;;;;6085662;23;21199;-87
2021/05/17 10:15:37;;;;;;;6.45;4.72;;;15.10;99.90;;;;;;6073353;23;20022;-87
2021/05/17 10:18:14;;;;;;;7.45;5.25;;;15.10;99.90;;;;;;6081743;23;20018;-87
2021/05/17 10:20:47;;;;;;;7.10;5.70;;;15.20;99.90;;;;;;6087108;23;20101;-87
2021/05/17 10:23:29;;;;;;;6.40;5.80;;;15.20;99.90;;;;;;6088706;23;20471;-87
2021/05/17 10:26:06;;;;;;;8.27;5.72;;;15.20;99.90;;;;;;6085865;23;20022;-87
2021/05/17 10:28:34;;;;;;;7.32;5.50;;;15.30;99.90;;;;;;6081780;23;20022;-87
2021/05/17 10:31:16;;;;;;;10.00;5.72;;;15.30;99.90;;;;;;6085208;23;20062;-87
2021/05/17 10:33:56;;;;;;;6.70;5.13;;;15.30;99.90;;;;;;6098634;23;20455;-86
2021/05/17 10:36:51;;;;;;;5.63;5.03;;;15.20;99.90;;;;;;6076432;23;20033;-86
2021/05/17 10:39:23;;;;;;;7.05;4.47;;;15.20;99.90;;;;;;6088862;23;20030;-86
2021/05/17 10:47:45;;;;;;;9.57;5.35;;;15.10;99.90;;;;;;6118090;23;20434;-86
2021/05/17 10:50:24;;;;;;;5.80;5.18;;;15.20;99.90;;;;;;6090559;23;20018;-86
2021/05/17 10:52:51;;;;;;;6.15;5.55;;;15.40;99.90;;;;;;6093045;23;20085;-86
2021/05/17 10:55:23;;;;;;;6.53;4.47;;;15.60;99.90;;;;;;6079448;23;20434;-87
2021/05/17 11:00:36;;;;;;;2.28;1.90;;;16.00;99.90;;;;;;6057780;23;20030;-87
2021/05/17 11:03:25;;;;;;;2.95;1.90;;;16.20;99.90;;;;;;6044257;23;20018;-87
2021/05/17 11:05:57;;;;;;;3.33;2.08;;;16.30;99.90;;;;;;6038928;23;20455;-86
2021/05/17 11:08:50;;;;;;;3.03;2.47;;;16.40;99.90;;;;;;6012406;23;20033;-87
2021/05/17 11:11:17;;;;;;;1.60;1.50;;;16.50;99.90;;;;;;6049028;23;20022;-85
2021/05/17 11:13:53;;;;;;;3.28;2.08;;;16.50;99.90;;;;;;6080847;23;20502;-86
2021/05/17 11:16:31;;;;;;;1.88;1.55;;;16.50;99.90;;;;;;6091294;23;20034;-86
2021/05/17 11:18:58;;;;;;;3.10;1.70;;;16.70;99.90;;;;;;6090197;23;20022;-86
2021/05/17 11:21:30;;;;;;;2.90;1.52;;;16.80;99.90;;;;;;6093657;23;20308;-87
2021/05/17 11:24:06;;;;;;;3.25;1.92;;;16.90;99.90;;;;;;6091636;23;20486;-86
2021/05/17 11:26:54;;;;;;;3.72;2.40;;;17.00;99.90;;;;;;6073211;23;20030;-86
2021/05/17 11:29:29;;;;;;;3.22;2.97;;;17.10;99.90;;;;;;6053076;23;20062;-87
2021/05/17 11:32:34;;;;;;;6.13;3.10;;;17.30;99.90;;;;;;6028912;23;20046;-87
2021/05/17 11:35:12;;;;;;;8.57;3.38;;;17.40;99.90;;;;;;6069620;23;20097;-87
2021/05/17 11:38:10;;;;;;;3.85;3.55;;;17.60;99.90;;;;;;6040937;23;20416;-87
2021/05/17 11:40:53;;;;;;;4.32;3.50;;;17.70;99.90;;;;;;6046862;23;20022;-87
2021/05/17 11:43:32;;;;;;;4.18;3.78;;;17.70;99.90;;;;;;6002986;23;20026;-87
2021/05/17 11:46:52;;;;;;;4.15;3.42;;;17.70;99.90;;;;;;6053034;23;20038;-87
2021/05/17 11:49:42;;;;;;;4.00;3.60;;;17.70;99.90;;;;;;6044790;23;20049;-86
2021/05/17 11:52:49;;;;;;;5.22;3.67;;;17.70;99.90;;;;;;6043097;23;20049;-87
2021/05/17 11:55:16;;;;;;;;;;;17.70;99.90;;;;;;6055343;23;20026;-88
2021/05/17 11:58:00;;;;;;;5.82;4.50;;;17.80;99.90;;;;;;6058843;23;19975;-86
2021/05/17 12:00:43;;;;;;;5.90;4.70;;;17.90;99.90;;;;;;6037314;23;20029;-85
2021/05/17 12:03:11;;;;;;;4.75;4.30;;;18.00;99.90;;;;;;6070546;23;20021;-86
2021/05/17 12:05:43;;;;;;;5.15;3.75;;;18.10;99.90;;;;;;6088207;23;20022;-86
2021/05/17 12:08:16;;;;;;;4.82;2.90;;;18.30;99.90;;;;;;6060771;23;20018;-86
2021/05/17 12:10:46;;;;;;;3.07;2.70;;;18.40;99.90;;;;;;6019750;23;20022;-86
2021/05/17 12:13:16;;;;;;;2.55;2.08;;;18.60;99.90;;;;;;6051037;23;20238;-87
2021/05/17 12:15:51;;;;;;;2.97;2.45;;;18.70;99.90;;;;;;6061176;23;20407;-86
2021/05/17 12:18:24;;;;;;;2.72;2.33;;;18.80;99.90;;;;;;6048554;23;20045;-86
2021/05/17 12:20:58;;;;;;;3.10;2.20;;;19.00;99.90;;;;;;6038537;23;20667;-86
2021/05/17 12:23:45;;;;;;;4.03;1.80;;;19.10;99.90;;;;;;6071149;23;20026;-86
2021/05/17 12:26:36;;;;;;;4.28;3.20;;;19.30;99.90;;;;;;6071907;23;20001;-87
2021/05/17 12:29:10;;;;;;;2.50;2.30;;;19.80;99.90;;;;;;6023845;23;20022;-86
2021/05/17 12:31:40;;;;;;;4.00;2.60;;;20.40;99.90;;;;;;6046656;23;20081;-84
2021/05/17 12:34:08;;;;;;;2.80;2.22;;;20.60;99.90;;;;;;6027487;23;20026;-86
2021/05/17 12:37:00;;;;;;;4.93;2.28;;;20.50;99.90;;;;;;5967956;23;20237;-86
2021/05/17 12:39:28;;;;;;;3.22;2.90;;;20.40;99.90;;;;;;6072017;23;20576;-87
2021/05/17 12:41:54;;;;;;;2.70;2.50;;;20.50;99.90;;;;;;6025295;23;20022;-86
2021/05/17 12:44:48;;;;;;;2.80;2.25;;;20.70;99.90;;;;;;6008879;23;20026;-86
2021/05/17 12:47:16;;;;;;;2.60;2.40;;;21.20;99.90;;;;;;5998563;23;20048;-86
2021/05/17 12:49:51;;;;;;;2.95;2.47;;;22.00;99.90;;;;;;6052613;23;20022;-86
2021/05/17 12:52:32;;;;;;;2.67;2.28;;;22.80;99.90;;;;;;6066166;23;20116;-86
2021/05/17 12:55:07;;;;;;;3.00;2.00;;;23.40;94.80;;;;;;6086549;23;20037;-86
2021/05/17 12:57:58;;;;;;;1.90;1.80;;;23.10;93.30;;;;;;6088599;23;20066;-87
2021/05/17 13:00:37;;;;;;;2.70;2.33;;;22.70;93.20;;;;;;6078080;23;20383;-86
2021/05/17 13:03:16;;;;;;;2.20;1.98;;;22.20;95.10;;;;;;6086506;23;20534;-86
2021/05/17 13:05:58;;;;;;;1.90;1.80;;;22.10;97.40;;;;;;6075317;23;20512;-85
2021/05/17 13:08:40;;;;;;;2.38;1.80;;;22.30;96.10;;;;;;6089203;23;20025;-84
2021/05/17 13:11:11;;;;;;;2.53;1.95;;;23.00;96.30;;;;;;6090706;23;20097;-84
2021/05/17 13:13:51;;;;;;;2.33;1.95;;;23.70;94.70;;;;;;6088495;23;20101;-84
2021/05/17 13:16:58;;;;;;;2.05;1.85;;;24.10;89.60;;;;;;6084907;23;20022;-84
2021/05/17 13:30:57;;;;;;;1.92;1.70;;;23.20;89.70;;;;;;6089305;23;20034;-84
2021/05/17 13:33:47;;;;;;;1.13;1.10;;;22.60;90.10;;;;;;6087211;23;20042;-84
2021/05/17 13:36:16;;;;;;;1.70;1.58;;;21.90;90.40;;;;;;6082985;23;20156;-85
2021/05/17 13:38:49;;;;;;;3.17;2.08;;;21.30;92.40;;;;;;6088690;23;20038;-84
2021/05/17 13:41:17;;;;;;;3.17;2.15;;;20.70;93.60;;;;;;6088707;23;20066;-84
2021/05/17 13:43:46;;;;;;;2.95;2.65;;;20.20;94.50;;;;;;6089489;23;20027;-84
2021/05/17 13:46:15;;;;;;;4.68;2.85;;;19.60;95.50;;;;;;6090877;23;20011;-84